Edgewater, MD

9:38 PM EST on February 10, 2016 (GMT -0500)
NonFedAWOS | | Change Station
CLOSE
Current Station
Personal Weather Station
Location: Riva, MD
Elevation: 34 ft
Nearby Weather Stations

Elev 34 ft 38.94 °N, 76.57 °W | Updated 23 minutes ago

Overcast
Overcast
27 °F
Feels Like 18 °F
N
10
Wind Variable Wind from NW
Gusts 25.0 mph

Today
High -- | Low -- °F
--% Chance of Precip.
Yesterday
High -- | Low -- °F
Precip. -- in
Pressure 29.90 in
Visibility 10.0 miles
Clouds Overcast 7500 ft
Windchill 18 °F
Dew Point 9 °F
Humidity 46%
Rainfall in
Snow Depth Not available.
7:04 AM 5:37 PM
Waxing Crescent, 8% visible
METAR KNAK 110154Z AUTO 30014G21KT 10SM OVC075 M02/M12 A2990 RMK AO2 SLP125 T10221117
Pressure 29.90 in
Visibility 10.0 miles
Clouds Overcast 7500 ft
Windchill 18 °F
Dew Point 9 °F
Humidity 46%
Rainfall in
Snow Depth Not available.
7:04 AM 5:37 PM
Waxing Crescent, 8% visible
METAR KNAK 110154Z AUTO 30014G21KT 10SM OVC075 M02/M12 A2990 RMK AO2 SLP125 T10221117

10-Day Weather Forecast

Almanac

Astronomy

Feb. 10, 2016 Rise Set
Actual Time
Civil Twilight
Nautical Twilight
Astronomical Twilight
Moon
Length of Visible Light
Length of Day
Tomorrow will be .
, % of the Moon is Illuminated

Today's Extremes

State Highs State Lows

Community

WunderPhotos

Upload Photos

1,891,986 photos uploaded!

WunderBlog® & News

Nearby

Air Quality

  Air Quality AQ Index Pollutant
Not available.

Snow Depth

Station Depth Elevation

Earthquake Activity

City Distance Mag. Time & Date
Minimum magnitude displayed is 2.5.

Coastal Water Temperatures

Place Temperature

Stations

Nearby Weather Stations

Station Location Temp. Windchill Dew Point Humidity Wind Precip. Elev Updated Type
                   

Watches & Warnings

There are currently no watches in effect.